Bookmark and Share
Track history (hours):
 

Ban Gong Hu

Last reported at 2014-Mar-29 12:33 UTC. Time now 2014-Apr-23 13:14 UTC.
Position N 34°09' E 134°57'.
Warning: this ship's position is 25 days out of date.

Length 229 m; draft 8.5 m.

Type: Tanker. MMSI: 412371000.

NotesDate/timePositionNaut miles runAvg speedWind from/ knotsBaromVisibWave heightAir tempDewpointWater temp
2014-Mar-29 12:33N 34°09' E 134°57'1110.8
2014-Mar-29 11:31N 34°20' E 134°59'1111.7
2014-Mar-29 10:33N 34°30' E 135°04'7 7.0
2014-Mar-29 09:32N 34°37' E 135°01'1111.1
2014-Mar-29 08:33N 34°33' E 134°48'  
2014-Mar-22 11:30N 34°41' E 139°35'92 2.7
2014-Mar-21 01:33N 35°55' E 140°42'6 1.2
2014-Mar-20 20:13N 35°57' E 140°49'0 0.0
2014-Mar-20 17:25N 35°57' E 140°49'0 0.0
2014-Mar-20 11:28N 35°57' E 140°49'7310.2
2014-Mar-20 04:23N 34°53' E 140°08'2010.2
2014-Mar-20 02:25N 34°56' E 139°43'1012.2
2014-Mar-20 01:34N 35°06' E 139°44'1211.6
2014-Mar-20 00:33N 35°18' E 139°44'8 8.0
2014-Mar-19 23:33N 35°25' E 139°39'0 0.0
2014-Mar-19 22:32N 35°25' E 139°39'0 0.0
2014-Mar-19 21:32N 35°25' E 139°39'0 0.0
2014-Mar-19 20:32N 35°25' E 139°39'0 0.0
2014-Mar-19 19:32N 35°25' E 139°39'0 0.0
2014-Mar-19 18:32N 35°25' E 139°39'0 0.0
2014-Mar-19 17:32N 35°25' E 139°39'0 0.0
2014-Mar-19 16:32N 35°25' E 139°39'0 0.0
2014-Mar-19 15:29N 35°25' E 139°39'0 0.0
2014-Mar-19 14:32N 35°25' E 139°39'0 0.0
2014-Mar-19 13:32N 35°25' E 139°39'  

Dump ship's entire track history

sailing weather and tide predictions

Ban Gong Hu — BOEY — position and weather